sensor_id;sensor_type;location;lat;lon;timestamp;P1;durP1;ratioP1;P2;durP2;ratioP2
79365;SDS011;68833;53.160;17.920;2024-03-23T08:32:47;48.30;;;22.10;;
79365;SDS011;68833;53.160;17.920;2024-03-23T08:35:17;34.00;;;23.40;;
79365;SDS011;68833;53.160;17.920;2024-03-23T08:37:43;24.00;;;11.00;;
79365;SDS011;68833;53.160;17.920;2024-03-23T08:40:10;23.80;;;12.20;;
79365;SDS011;68833;53.160;17.920;2024-03-23T08:42:40;19.70;;;7.90;;
79365;SDS011;68833;53.160;17.920;2024-03-23T08:45:07;13.40;;;5.70;;
79365;SDS011;68833;53.160;17.920;2024-03-23T08:47:35;12.90;;;6.30;;
79365;SDS011;68833;53.160;17.920;2024-03-23T08:50:03;12.90;;;4.00;;
79365;SDS011;68833;53.160;17.920;2024-03-23T08:52:33;8.50;;;3.20;;
79365;SDS011;68833;53.160;17.920;2024-03-23T08:55:04;9.60;;;4.20;;
79365;SDS011;68833;53.160;17.920;2024-03-23T08:57:32;10.00;;;3.90;;
79365;SDS011;68833;53.160;17.920;2024-03-23T09:00:02;7.90;;;5.80;;
79365;SDS011;68833;53.160;17.920;2024-03-23T09:02:28;6.70;;;2.70;;
79365;SDS011;68833;53.160;17.920;2024-03-23T09:04:55;7.60;;;3.90;;
79365;SDS011;68833;53.160;17.920;2024-03-23T09:07:21;7.00;;;3.90;;
79365;SDS011;68833;53.160;17.920;2024-03-23T09:09:48;6.10;;;3.30;;
79365;SDS011;68833;53.160;17.920;2024-03-23T09:12:14;5.30;;;2.40;;
79365;SDS011;68833;53.160;17.920;2024-03-23T09:14:40;4.20;;;2.40;;
79365;SDS011;68833;53.160;17.920;2024-03-23T09:17:06;6.00;;;2.70;;
79365;SDS011;68833;53.160;17.920;2024-03-23T09:19:34;5.80;;;2.80;;
79365;SDS011;68833;53.160;17.920;2024-03-23T09:22:00;7.90;;;5.10;;
79365;SDS011;68833;53.160;17.920;2024-03-23T09:24:30;6.10;;;2.40;;
79365;SDS011;68833;53.160;17.920;2024-03-23T09:26:57;4.60;;;2.50;;
79365;SDS011;68833;53.160;17.920;2024-03-23T09:29:24;8.00;;;3.30;;
79365;SDS011;68833;53.160;17.920;2024-03-23T09:31:50;8.60;;;3.50;;
79365;SDS011;68833;53.160;17.920;2024-03-23T09:34:16;5.40;;;1.90;;
79365;SDS011;68833;53.160;17.920;2024-03-23T09:36:43;7.20;;;2.60;;
79365;SDS011;68833;53.160;17.920;2024-03-23T09:39:09;5.70;;;3.20;;
79365;SDS011;68833;53.160;17.920;2024-03-23T09:41:42;5.20;;;2.90;;
79365;SDS011;68833;53.160;17.920;2024-03-23T09:44:09;7.10;;;3.10;;
79365;SDS011;68833;53.160;17.920;2024-03-23T09:46:36;8.10;;;2.70;;
79365;SDS011;68833;53.160;17.920;2024-03-23T09:49:02;8.90;;;4.00;;
79365;SDS011;68833;53.160;17.920;2024-03-23T09:51:30;22.20;;;13.00;;
79365;SDS011;68833;53.160;17.920;2024-03-23T09:53:57;8.90;;;4.60;;
79365;SDS011;68833;53.160;17.920;2024-03-23T09:56:23;5.40;;;2.20;;
79365;SDS011;68833;53.160;17.920;2024-03-23T09:58:50;6.70;;;2.20;;
79365;SDS011;68833;53.160;17.920;2024-03-23T10:01:16;5.40;;;2.20;;
79365;SDS011;68833;53.160;17.920;2024-03-23T10:03:43;4.10;;;3.50;;
79365;SDS011;68833;53.160;17.920;2024-03-23T10:06:10;7.00;;;3.10;;
79365;SDS011;68833;53.160;17.920;2024-03-23T10:08:37;15.40;;;8.70;;
79365;SDS011;68833;53.160;17.920;2024-03-23T10:11:15;15.10;;;7.80;;
79365;SDS011;68833;53.160;17.920;2024-03-23T10:13:43;14.20;;;7.50;;
79365;SDS011;68833;53.160;17.920;2024-03-23T10:16:10;8.60;;;4.60;;
79365;SDS011;68833;53.160;17.920;2024-03-23T10:18:39;24.60;;;16.30;;
79365;SDS011;68833;53.160;17.920;2024-03-23T10:21:09;28.40;;;18.50;;
79365;SDS011;68833;53.160;17.920;2024-03-23T10:23:38;16.80;;;8.10;;
79365;SDS011;68833;53.160;17.920;2024-03-23T10:26:18;5.20;;;2.90;;
79365;SDS011;68833;53.160;17.920;2024-03-23T10:28:58;6.00;;;3.10;;
79365;SDS011;68833;53.160;17.920;2024-03-23T10:31:37;16.20;;;14.60;;
79365;SDS011;68833;53.160;17.920;2024-03-23T10:34:07;12.90;;;10.50;;
79365;SDS011;68833;53.160;17.920;2024-03-23T10:36:34;8.50;;;5.30;;
79365;SDS011;68833;53.160;17.920;2024-03-23T10:39:07;7.30;;;3.60;;
79365;SDS011;68833;53.160;17.920;2024-03-23T10:41:33;22.10;;;15.70;;
79365;SDS011;68833;53.160;17.920;2024-03-23T10:44:00;2.80;;;1.40;;
79365;SDS011;68833;53.160;17.920;2024-03-23T10:46:28;3.70;;;1.20;;
79365;SDS011;68833;53.160;17.920;2024-03-23T10:48:55;6.80;;;1.60;;
79365;SDS011;68833;53.160;17.920;2024-03-23T10:51:21;10.10;;;4.30;;
79365;SDS011;68833;53.160;17.920;2024-03-23T10:53:47;7.20;;;2.00;;
79365;SDS011;68833;53.160;17.920;2024-03-23T10:56:14;6.60;;;2.30;;
79365;SDS011;68833;53.160;17.920;2024-03-23T10:58:47;5.90;;;2.60;;
79365;SDS011;68833;53.160;17.920;2024-03-23T11:03:38;38.30;;;29.50;;
79365;SDS011;68833;53.160;17.920;2024-03-23T11:06:10;50.00;;;37.00;;
79365;SDS011;68833;53.160;17.920;2024-03-23T11:08:57;63.20;;;43.10;;
79365;SDS011;68833;53.160;17.920;2024-03-23T11:11:24;41.40;;;26.50;;
79365;SDS011;68833;53.160;17.920;2024-03-23T11:13:52;15.30;;;8.30;;
79365;SDS011;68833;53.160;17.920;2024-03-23T11:16:26;9.80;;;5.30;;
79365;SDS011;68833;53.160;17.920;2024-03-23T11:21:51;12.40;;;6.60;;
79365;SDS011;68833;53.160;17.920;2024-03-23T11:24:22;12.50;;;6.00;;
79365;SDS011;68833;53.160;17.920;2024-03-23T11:26:49;26.40;;;15.40;;
79365;SDS011;68833;53.160;17.920;2024-03-23T11:29:18;20.40;;;9.70;;
79365;SDS011;68833;53.160;17.920;2024-03-23T11:31:46;19.00;;;6.40;;
79365;SDS011;68833;53.160;17.920;2024-03-23T11:34:14;16.50;;;5.30;;
79365;SDS011;68833;53.160;17.920;2024-03-23T11:36:42;7.90;;;2.70;;
79365;SDS011;68833;53.160;17.920;2024-03-23T11:39:16;5.30;;;2.10;;
79365;SDS011;68833;53.160;17.920;2024-03-23T11:41:48;7.50;;;2.60;;
79365;SDS011;68833;53.160;17.920;2024-03-23T11:46:44;4.60;;;2.70;;
79365;SDS011;68833;53.160;17.920;2024-03-23T11:49:24;10.10;;;3.30;;
79365;SDS011;68833;53.160;17.920;2024-03-23T11:51:53;10.20;;;3.70;;
79365;SDS011;68833;53.160;17.920;2024-03-23T11:54:21;7.50;;;3.40;;
79365;SDS011;68833;53.160;17.920;2024-03-23T11:56:59;11.00;;;4.80;;
79365;SDS011;68833;53.160;17.920;2024-03-23T11:59:34;8.60;;;4.50;;
79365;SDS011;68833;53.160;17.920;2024-03-23T12:02:11;21.60;;;11.80;;
79365;SDS011;68833;53.160;17.920;2024-03-23T12:04:42;14.30;;;5.60;;
79365;SDS011;68833;53.160;17.920;2024-03-23T12:07:18;8.50;;;4.10;;
79365;SDS011;68833;53.160;17.920;2024-03-23T12:09:48;6.70;;;3.40;;
79365;SDS011;68833;53.160;17.920;2024-03-23T12:12:33;8.00;;;4.00;;
79365;SDS011;68833;53.160;17.920;2024-03-23T12:15:09;24.20;;;14.90;;
79365;SDS011;68833;53.160;17.920;2024-03-23T12:17:44;8.80;;;2.90;;
79365;SDS011;68833;53.160;17.920;2024-03-23T12:20:11;8.80;;;3.40;;
79365;SDS011;68833;53.160;17.920;2024-03-23T12:22:38;9.50;;;3.70;;
79365;SDS011;68833;53.160;17.920;2024-03-23T12:25:05;7.00;;;3.10;;
79365;SDS011;68833;53.160;17.920;2024-03-23T12:27:33;12.70;;;4.90;;
79365;SDS011;68833;53.160;17.920;2024-03-23T12:30:01;11.70;;;4.30;;
79365;SDS011;68833;53.160;17.920;2024-03-23T12:32:29;9.10;;;5.00;;
79365;SDS011;68833;53.160;17.920;2024-03-23T12:34:56;10.20;;;4.60;;
79365;SDS011;68833;53.160;17.920;2024-03-23T12:37:23;6.40;;;3.70;;
79365;SDS011;68833;53.160;17.920;2024-03-23T12:39:50;5.00;;;3.30;;
79365;SDS011;68833;53.160;17.920;2024-03-23T12:42:20;9.90;;;3.20;;
79365;SDS011;68833;53.160;17.920;2024-03-23T12:44:47;6.90;;;3.00;;
79365;SDS011;68833;53.160;17.920;2024-03-23T12:47:15;16.00;;;7.30;;
79365;SDS011;68833;53.160;17.920;2024-03-23T12:49:44;40.00;;;19.60;;
79365;SDS011;68833;53.160;17.920;2024-03-23T12:52:11;29.00;;;16.00;;
79365;SDS011;68833;53.160;17.920;2024-03-23T12:54:39;8.70;;;5.00;;
79365;SDS011;68833;53.160;17.920;2024-03-23T12:57:06;7.80;;;5.10;;
79365;SDS011;68833;53.160;17.920;2024-03-23T12:59:33;8.70;;;4.00;;
79365;SDS011;68833;53.160;17.920;2024-03-23T13:02:02;5.30;;;3.00;;
79365;SDS011;68833;53.160;17.920;2024-03-23T13:04:29;6.80;;;3.20;;
79365;SDS011;68833;53.160;17.920;2024-03-23T13:06:56;6.40;;;2.90;;
79365;SDS011;68833;53.160;17.920;2024-03-23T13:09:23;6.80;;;2.70;;
79365;SDS011;68833;53.160;17.920;2024-03-23T13:11:50;6.10;;;2.70;;
79365;SDS011;68833;53.160;17.920;2024-03-23T13:14:17;5.80;;;3.20;;
79365;SDS011;68833;53.160;17.920;2024-03-23T13:16:44;6.40;;;3.50;;
79365;SDS011;68833;53.160;17.920;2024-03-23T13:19:11;8.30;;;3.80;;
79365;SDS011;68833;53.160;17.920;2024-03-23T13:21:38;7.60;;;3.80;;
79365;SDS011;68833;53.160;17.920;2024-03-23T13:24:05;6.90;;;3.60;;
79365;SDS011;68833;53.160;17.920;2024-03-23T13:26:32;6.40;;;3.30;;
79365;SDS011;68833;53.160;17.920;2024-03-23T13:29:01;11.80;;;5.70;;
79365;SDS011;68833;53.160;17.920;2024-03-23T13:31:27;8.10;;;5.20;;
79365;SDS011;68833;53.160;17.920;2024-03-23T13:33:54;8.10;;;4.10;;
79365;SDS011;68833;53.160;17.920;2024-03-23T13:36:21;8.00;;;3.50;;
79365;SDS011;68833;53.160;17.920;2024-03-23T13:38:48;5.70;;;2.80;;
79365;SDS011;68833;53.160;17.920;2024-03-23T13:41:18;3.20;;;1.80;;
79365;SDS011;68833;53.160;17.920;2024-03-23T13:43:44;3.20;;;2.00;;
79365;SDS011;68833;53.160;17.920;2024-03-23T13:46:11;6.60;;;3.50;;
79365;SDS011;68833;53.160;17.920;2024-03-23T13:48:38;11.80;;;5.50;;
79365;SDS011;68833;53.160;17.920;2024-03-23T13:51:05;7.60;;;4.20;;
79365;SDS011;68833;53.160;17.920;2024-03-23T13:53:35;7.70;;;3.50;;
79365;SDS011;68833;53.160;17.920;2024-03-23T13:56:05;6.70;;;3.30;;
79365;SDS011;68833;53.160;17.920;2024-03-23T13:58:32;7.80;;;3.50;;
79365;SDS011;68833;53.160;17.920;2024-03-23T14:00:59;7.50;;;3.80;;
79365;SDS011;68833;53.160;17.920;2024-03-23T14:03:27;7.40;;;3.50;;
79365;SDS011;68833;53.160;17.920;2024-03-23T14:05:59;6.60;;;4.50;;
79365;SDS011;68833;53.160;17.920;2024-03-23T14:08:29;8.50;;;3.30;;
79365;SDS011;68833;53.160;17.920;2024-03-23T14:13:27;3.10;;;2.10;;
79365;SDS011;68833;53.160;17.920;2024-03-23T14:15:54;3.50;;;2.00;;
79365;SDS011;68833;53.160;17.920;2024-03-23T14:18:22;5.10;;;2.50;;
79365;SDS011;68833;53.160;17.920;2024-03-23T14:20:58;2.00;;;1.30;;
79365;SDS011;68833;53.160;17.920;2024-03-23T14:23:27;10.00;;;4.70;;
79365;SDS011;68833;53.160;17.920;2024-03-23T14:26:03;11.30;;;6.00;;
79365;SDS011;68833;53.160;17.920;2024-03-23T14:28:35;12.30;;;5.60;;
79365;SDS011;68833;53.160;17.920;2024-03-23T14:31:02;23.10;;;9.40;;
79365;SDS011;68833;53.160;17.920;2024-03-23T14:33:33;7.80;;;3.60;;
79365;SDS011;68833;53.160;17.920;2024-03-23T14:36:00;5.20;;;2.80;;
79365;SDS011;68833;53.160;17.920;2024-03-23T14:38:27;4.20;;;2.00;;
79365;SDS011;68833;53.160;17.920;2024-03-23T14:40:57;5.00;;;2.60;;
79365;SDS011;68833;53.160;17.920;2024-03-23T14:43:25;3.60;;;2.10;;
79365;SDS011;68833;53.160;17.920;2024-03-23T14:48:43;2.70;;;1.60;;
79365;SDS011;68833;53.160;17.920;2024-03-23T14:51:11;2.60;;;1.20;;
79365;SDS011;68833;53.160;17.920;2024-03-23T14:53:38;2.00;;;1.10;;
79365;SDS011;68833;53.160;17.920;2024-03-23T14:56:08;3.70;;;1.40;;
79365;SDS011;68833;53.160;17.920;2024-03-23T14:58:39;3.40;;;2.10;;
79365;SDS011;68833;53.160;17.920;2024-03-23T15:01:08;3.30;;;1.90;;
79365;SDS011;68833;53.160;17.920;2024-03-23T15:03:38;4.00;;;2.60;;
79365;SDS011;68833;53.160;17.920;2024-03-23T15:06:11;2.90;;;1.70;;
79365;SDS011;68833;53.160;17.920;2024-03-23T15:08:38;4.10;;;2.50;;
79365;SDS011;68833;53.160;17.920;2024-03-23T15:11:09;4.00;;;2.40;;
79365;SDS011;68833;53.160;17.920;2024-03-23T15:13:40;4.20;;;1.90;;
79365;SDS011;68833;53.160;17.920;2024-03-23T15:18:37;4.40;;;1.90;;
79365;SDS011;68833;53.160;17.920;2024-03-23T15:21:05;3.50;;;1.90;;
79365;SDS011;68833;53.160;17.920;2024-03-23T15:23:34;3.40;;;1.90;;
79365;SDS011;68833;53.160;17.920;2024-03-23T15:26:02;3.60;;;1.90;;
79365;SDS011;68833;53.160;17.920;2024-03-23T15:28:30;5.50;;;2.80;;
79365;SDS011;68833;53.160;17.920;2024-03-23T15:31:29;4.90;;;2.10;;
79365;SDS011;68833;53.160;17.920;2024-03-23T15:33:56;4.80;;;2.40;;
79365;SDS011;68833;53.160;17.920;2024-03-23T15:36:23;3.20;;;2.10;;
79365;SDS011;68833;53.160;17.920;2024-03-23T15:38:50;7.50;;;2.00;;
79365;SDS011;68833;53.160;17.920;2024-03-23T15:41:17;8.60;;;2.50;;
79365;SDS011;68833;53.160;17.920;2024-03-23T15:43:44;6.10;;;2.80;;
79365;SDS011;68833;53.160;17.920;2024-03-23T15:46:11;7.40;;;2.40;;
79365;SDS011;68833;53.160;17.920;2024-03-23T15:48:38;5.10;;;2.70;;
79365;SDS011;68833;53.160;17.920;2024-03-23T15:51:05;4.30;;;2.00;;
79365;SDS011;68833;53.160;17.920;2024-03-23T15:53:32;4.50;;;2.10;;
79365;SDS011;68833;53.160;17.920;2024-03-23T15:56:00;5.90;;;2.60;;
79365;SDS011;68833;53.160;17.920;2024-03-23T15:58:28;5.50;;;2.60;;
79365;SDS011;68833;53.160;17.920;2024-03-23T16:01:04;9.30;;;4.10;;
79365;SDS011;68833;53.160;17.920;2024-03-23T16:03:32;7.10;;;3.60;;
79365;SDS011;68833;53.160;17.920;2024-03-23T16:06:00;8.50;;;4.90;;
79365;SDS011;68833;53.160;17.920;2024-03-23T16:08:31;7.20;;;4.30;;
79365;SDS011;68833;53.160;17.920;2024-03-23T16:11:02;7.50;;;3.90;;
79365;SDS011;68833;53.160;17.920;2024-03-23T16:13:30;7.50;;;3.30;;
79365;SDS011;68833;53.160;17.920;2024-03-23T16:15:58;7.50;;;2.90;;
79365;SDS011;68833;53.160;17.920;2024-03-23T16:18:26;7.80;;;3.50;;
79365;SDS011;68833;53.160;17.920;2024-03-23T16:20:57;5.50;;;2.70;;
79365;SDS011;68833;53.160;17.920;2024-03-23T16:23:28;5.20;;;3.00;;
79365;SDS011;68833;53.160;17.920;2024-03-23T16:25:56;6.20;;;3.10;;
79365;SDS011;68833;53.160;17.920;2024-03-23T16:31:04;11.30;;;4.70;;
79365;SDS011;68833;53.160;17.920;2024-03-23T16:33:38;10.80;;;5.00;;
79365;SDS011;68833;53.160;17.920;2024-03-23T16:36:06;12.00;;;5.70;;
79365;SDS011;68833;53.160;17.920;2024-03-23T16:38:39;9.10;;;5.80;;
79365;SDS011;68833;53.160;17.920;2024-03-23T16:43:42;9.90;;;4.10;;
79365;SDS011;68833;53.160;17.920;2024-03-23T16:46:09;5.20;;;2.80;;
79365;SDS011;68833;53.160;17.920;2024-03-23T16:48:38;11.70;;;5.30;;
79365;SDS011;68833;53.160;17.920;2024-03-23T16:51:06;12.30;;;7.50;;
79365;SDS011;68833;53.160;17.920;2024-03-23T16:53:34;13.30;;;6.40;;
79365;SDS011;68833;53.160;17.920;2024-03-23T16:56:02;12.50;;;5.80;;
79365;SDS011;68833;53.160;17.920;2024-03-23T16:58:33;12.10;;;5.50;;
79365;SDS011;68833;53.160;17.920;2024-03-23T17:03:37;19.80;;;9.00;;
79365;SDS011;68833;53.160;17.920;2024-03-23T17:06:04;22.70;;;7.50;;
79365;SDS011;68833;53.160;17.920;2024-03-23T17:08:32;17.80;;;7.20;;
79365;SDS011;68833;53.160;17.920;2024-03-23T17:11:00;17.40;;;5.60;;
79365;SDS011;68833;53.160;17.920;2024-03-23T17:13:28;14.40;;;5.60;;
79365;SDS011;68833;53.160;17.920;2024-03-23T17:15:55;10.60;;;4.90;;
79365;SDS011;68833;53.160;17.920;2024-03-23T17:18:22;15.10;;;6.30;;
79365;SDS011;68833;53.160;17.920;2024-03-23T17:20:52;12.20;;;5.00;;
79365;SDS011;68833;53.160;17.920;2024-03-23T17:23:29;13.50;;;5.90;;
79365;SDS011;68833;53.160;17.920;2024-03-23T17:26:00;10.70;;;5.20;;
79365;SDS011;68833;53.160;17.920;2024-03-23T17:28:27;11.10;;;5.00;;
79365;SDS011;68833;53.160;17.920;2024-03-23T17:30:58;10.70;;;5.30;;
79365;SDS011;68833;53.160;17.920;2024-03-23T17:33:27;8.30;;;4.30;;
79365;SDS011;68833;53.160;17.920;2024-03-23T17:35:57;10.90;;;4.90;;
79365;SDS011;68833;53.160;17.920;2024-03-23T17:38:28;12.80;;;5.90;;
79365;SDS011;68833;53.160;17.920;2024-03-23T17:40:58;11.40;;;5.60;;
79365;SDS011;68833;53.160;17.920;2024-03-23T17:43:30;10.10;;;4.80;;
79365;SDS011;68833;53.160;17.920;2024-03-23T17:46:01;10.40;;;5.10;;
79365;SDS011;68833;53.160;17.920;2024-03-23T17:48:34;13.70;;;6.80;;
79365;SDS011;68833;53.160;17.920;2024-03-23T17:51:04;9.90;;;4.80;;
79365;SDS011;68833;53.160;17.920;2024-03-23T17:53:38;13.10;;;5.10;;
79365;SDS011;68833;53.160;17.920;2024-03-23T17:56:09;10.10;;;4.70;;
79365;SDS011;68833;53.160;17.920;2024-03-23T17:58:42;10.40;;;4.80;;
79365;SDS011;68833;53.160;17.920;2024-03-23T18:01:17;9.30;;;4.40;;
79365;SDS011;68833;53.160;17.920;2024-03-23T18:03:54;9.80;;;5.80;;
79365;SDS011;68833;53.160;17.920;2024-03-23T18:06:22;13.40;;;5.30;;
79365;SDS011;68833;53.160;17.920;2024-03-23T18:08:51;13.80;;;8.00;;
79365;SDS011;68833;53.160;17.920;2024-03-23T18:11:18;18.30;;;10.50;;
79365;SDS011;68833;53.160;17.920;2024-03-23T18:13:45;15.40;;;9.10;;
79365;SDS011;68833;53.160;17.920;2024-03-23T18:16:15;13.40;;;9.30;;
79365;SDS011;68833;53.160;17.920;2024-03-23T18:18:45;13.20;;;8.10;;
79365;SDS011;68833;53.160;17.920;2024-03-23T18:21:12;12.90;;;10.00;;
79365;SDS011;68833;53.160;17.920;2024-03-23T18:23:47;18.60;;;9.40;;
79365;SDS011;68833;53.160;17.920;2024-03-23T18:26:15;16.00;;;9.80;;
79365;SDS011;68833;53.160;17.920;2024-03-23T18:28:51;15.30;;;8.60;;
79365;SDS011;68833;53.160;17.920;2024-03-23T18:31:21;12.70;;;8.20;;
79365;SDS011;68833;53.160;17.920;2024-03-23T18:33:52;11.00;;;6.40;;
79365;SDS011;68833;53.160;17.920;2024-03-23T18:36:19;10.00;;;6.50;;
79365;SDS011;68833;53.160;17.920;2024-03-23T18:38:58;11.70;;;7.40;;
79365;SDS011;68833;53.160;17.920;2024-03-23T18:41:26;12.30;;;6.20;;
79365;SDS011;68833;53.160;17.920;2024-03-23T18:43:55;11.50;;;6.70;;
79365;SDS011;68833;53.160;17.920;2024-03-23T18:46:23;12.60;;;7.20;;
79365;SDS011;68833;53.160;17.920;2024-03-23T18:48:51;14.40;;;6.70;;
79365;SDS011;68833;53.160;17.920;2024-03-23T18:51:18;14.60;;;6.80;;
79365;SDS011;68833;53.160;17.920;2024-03-23T18:53:46;15.30;;;7.70;;
79365;SDS011;68833;53.160;17.920;2024-03-23T18:56:14;21.70;;;8.70;;
79365;SDS011;68833;53.160;17.920;2024-03-23T18:58:44;16.90;;;8.80;;
79365;SDS011;68833;53.160;17.920;2024-03-23T19:01:11;14.90;;;8.60;;
79365;SDS011;68833;53.160;17.920;2024-03-23T19:03:38;14.50;;;6.70;;
79365;SDS011;68833;53.160;17.920;2024-03-23T19:06:11;12.30;;;6.10;;
79365;SDS011;68833;53.160;17.920;2024-03-23T19:08:42;9.10;;;5.50;;
79365;SDS011;68833;53.160;17.920;2024-03-23T19:11:09;12.20;;;6.30;;
79365;SDS011;68833;53.160;17.920;2024-03-23T19:13:36;16.20;;;7.20;;
79365;SDS011;68833;53.160;17.920;2024-03-23T19:16:06;16.60;;;6.90;;
79365;SDS011;68833;53.160;17.920;2024-03-23T19:18:35;14.60;;;7.80;;
79365;SDS011;68833;53.160;17.920;2024-03-23T19:21:05;12.80;;;7.50;;
79365;SDS011;68833;53.160;17.920;2024-03-23T19:23:34;16.20;;;8.10;;
79365;SDS011;68833;53.160;17.920;2024-03-23T19:26:03;17.40;;;7.50;;
79365;SDS011;68833;53.160;17.920;2024-03-23T19:28:30;10.70;;;7.30;;
79365;SDS011;68833;53.160;17.920;2024-03-23T19:31:01;14.90;;;8.80;;
79365;SDS011;68833;53.160;17.920;2024-03-23T19:33:28;14.30;;;7.20;;
79365;SDS011;68833;53.160;17.920;2024-03-23T19:35:57;12.60;;;7.30;;
79365;SDS011;68833;53.160;17.920;2024-03-23T19:38:24;16.40;;;6.50;;
79365;SDS011;68833;53.160;17.920;2024-03-23T19:40:53;10.00;;;6.10;;
79365;SDS011;68833;53.160;17.920;2024-03-23T19:43:21;8.50;;;5.40;;
79365;SDS011;68833;53.160;17.920;2024-03-23T19:45:48;11.20;;;5.30;;
79365;SDS011;68833;53.160;17.920;2024-03-23T19:48:15;13.70;;;6.20;;
79365;SDS011;68833;53.160;17.920;2024-03-23T19:50:42;9.50;;;6.10;;
79365;SDS011;68833;53.160;17.920;2024-03-23T19:53:10;8.50;;;5.10;;
79365;SDS011;68833;53.160;17.920;2024-03-23T19:55:37;7.60;;;5.00;;
79365;SDS011;68833;53.160;17.920;2024-03-23T19:58:06;6.80;;;4.00;;
79365;SDS011;68833;53.160;17.920;2024-03-23T20:00:36;7.20;;;3.70;;
79365;SDS011;68833;53.160;17.920;2024-03-23T20:03:04;8.20;;;4.70;;
79365;SDS011;68833;53.160;17.920;2024-03-23T20:05:33;7.70;;;4.00;;
79365;SDS011;68833;53.160;17.920;2024-03-23T20:08:00;7.90;;;4.20;;
79365;SDS011;68833;53.160;17.920;2024-03-23T20:10:27;10.20;;;4.60;;
79365;SDS011;68833;53.160;17.920;2024-03-23T20:12:55;11.90;;;5.80;;
79365;SDS011;68833;53.160;17.920;2024-03-23T20:15:23;8.50;;;4.90;;
79365;SDS011;68833;53.160;17.920;2024-03-23T20:17:49;11.90;;;4.70;;
79365;SDS011;68833;53.160;17.920;2024-03-23T20:20:16;9.40;;;4.90;;
79365;SDS011;68833;53.160;17.920;2024-03-23T20:22:47;11.80;;;5.00;;
79365;SDS011;68833;53.160;17.920;2024-03-23T20:25:14;8.90;;;4.60;;
79365;SDS011;68833;53.160;17.920;2024-03-23T20:27:41;10.20;;;4.70;;
79365;SDS011;68833;53.160;17.920;2024-03-23T20:30:16;10.00;;;5.20;;
79365;SDS011;68833;53.160;17.920;2024-03-23T20:32:44;11.10;;;5.80;;
79365;SDS011;68833;53.160;17.920;2024-03-23T20:35:12;11.30;;;5.40;;
79365;SDS011;68833;53.160;17.920;2024-03-23T20:37:39;8.80;;;5.40;;
79365;SDS011;68833;53.160;17.920;2024-03-23T20:40:08;8.50;;;4.70;;
79365;SDS011;68833;53.160;17.920;2024-03-23T20:42:39;9.90;;;5.30;;
79365;SDS011;68833;53.160;17.920;2024-03-23T20:45:06;8.60;;;6.10;;
79365;SDS011;68833;53.160;17.920;2024-03-23T20:47:33;8.90;;;5.50;;
79365;SDS011;68833;53.160;17.920;2024-03-23T20:50:08;10.50;;;5.80;;
79365;SDS011;68833;53.160;17.920;2024-03-23T20:52:38;10.20;;;5.70;;
79365;SDS011;68833;53.160;17.920;2024-03-23T20:55:07;13.10;;;6.50;;
79365;SDS011;68833;53.160;17.920;2024-03-23T20:57:41;10.10;;;6.20;;
79365;SDS011;68833;53.160;17.920;2024-03-23T21:00:12;11.90;;;5.90;;
79365;SDS011;68833;53.160;17.920;2024-03-23T21:02:44;15.90;;;7.90;;
79365;SDS011;68833;53.160;17.920;2024-03-23T21:05:15;14.80;;;10.00;;
79365;SDS011;68833;53.160;17.920;2024-03-23T21:07:47;17.90;;;10.60;;
79365;SDS011;68833;53.160;17.920;2024-03-23T21:10:21;18.60;;;11.20;;
79365;SDS011;68833;53.160;17.920;2024-03-23T21:12:51;20.20;;;11.70;;
79365;SDS011;68833;53.160;17.920;2024-03-23T21:15:24;13.10;;;9.40;;
79365;SDS011;68833;53.160;17.920;2024-03-23T21:17:53;16.00;;;9.50;;
79365;SDS011;68833;53.160;17.920;2024-03-23T21:20:25;18.40;;;9.00;;
79365;SDS011;68833;53.160;17.920;2024-03-23T21:22:53;14.90;;;8.90;;
79365;SDS011;68833;53.160;17.920;2024-03-23T21:25:22;13.40;;;8.20;;
79365;SDS011;68833;53.160;17.920;2024-03-23T21:27:55;11.80;;;7.10;;
79365;SDS011;68833;53.160;17.920;2024-03-23T21:30:25;10.20;;;7.10;;
79365;SDS011;68833;53.160;17.920;2024-03-23T21:32:52;9.40;;;6.80;;
79365;SDS011;68833;53.160;17.920;2024-03-23T21:35:21;13.80;;;6.70;;
79365;SDS011;68833;53.160;17.920;2024-03-23T21:40:19;9.70;;;5.60;;
79365;SDS011;68833;53.160;17.920;2024-03-23T21:42:47;8.60;;;6.20;;
79365;SDS011;68833;53.160;17.920;2024-03-23T21:45:14;14.30;;;7.30;;
79365;SDS011;68833;53.160;17.920;2024-03-23T21:47:41;14.80;;;7.70;;
79365;SDS011;68833;53.160;17.920;2024-03-23T21:50:08;12.60;;;7.40;;
79365;SDS011;68833;53.160;17.920;2024-03-23T21:52:41;16.50;;;8.50;;
79365;SDS011;68833;53.160;17.920;2024-03-23T21:55:09;13.10;;;8.50;;
79365;SDS011;68833;53.160;17.920;2024-03-23T21:57:38;15.60;;;6.90;;
79365;SDS011;68833;53.160;17.920;2024-03-23T22:00:06;13.50;;;7.80;;
79365;SDS011;68833;53.160;17.920;2024-03-23T22:02:39;9.80;;;6.50;;
79365;SDS011;68833;53.160;17.920;2024-03-23T22:05:06;7.60;;;6.40;;
79365;SDS011;68833;53.160;17.920;2024-03-23T22:07:34;13.10;;;7.40;;
79365;SDS011;68833;53.160;17.920;2024-03-23T22:10:01;15.60;;;8.90;;
79365;SDS011;68833;53.160;17.920;2024-03-23T22:12:31;12.80;;;7.70;;
79365;SDS011;68833;53.160;17.920;2024-03-23T22:15:00;12.50;;;7.60;;
79365;SDS011;68833;53.160;17.920;2024-03-23T22:17:29;17.50;;;10.90;;
79365;SDS011;68833;53.160;17.920;2024-03-23T22:19:59;13.90;;;8.50;;
79365;SDS011;68833;53.160;17.920;2024-03-23T22:22:26;13.10;;;8.30;;
79365;SDS011;68833;53.160;17.920;2024-03-23T22:24:53;11.40;;;7.40;;
79365;SDS011;68833;53.160;17.920;2024-03-23T22:27:20;14.10;;;7.60;;
79365;SDS011;68833;53.160;17.920;2024-03-23T22:29:50;12.70;;;7.10;;
79365;SDS011;68833;53.160;17.920;2024-03-23T22:32:22;11.40;;;7.20;;
79365;SDS011;68833;53.160;17.920;2024-03-23T22:34:54;14.40;;;7.40;;
79365;SDS011;68833;53.160;17.920;2024-03-23T22:37:21;10.20;;;6.40;;
79365;SDS011;68833;53.160;17.920;2024-03-23T22:39:48;12.30;;;6.60;;
79365;SDS011;68833;53.160;17.920;2024-03-23T22:42:15;9.90;;;6.30;;
79365;SDS011;68833;53.160;17.920;2024-03-23T22:44:42;14.80;;;7.30;;
79365;SDS011;68833;53.160;17.920;2024-03-23T22:47:09;12.80;;;7.40;;
79365;SDS011;68833;53.160;17.920;2024-03-23T22:49:36;14.60;;;6.70;;
79365;SDS011;68833;53.160;17.920;2024-03-23T22:52:11;11.20;;;7.40;;
79365;SDS011;68833;53.160;17.920;2024-03-23T22:54:46;10.40;;;6.30;;
79365;SDS011;68833;53.160;17.920;2024-03-23T22:57:20;9.80;;;6.30;;
79365;SDS011;68833;53.160;17.920;2024-03-23T22:59:50;13.40;;;7.10;;
79365;SDS011;68833;53.160;17.920;2024-03-23T23:02:19;15.50;;;7.30;;
79365;SDS011;68833;53.160;17.920;2024-03-23T23:04:49;12.50;;;6.70;;
79365;SDS011;68833;53.160;17.920;2024-03-23T23:08:37;11.40;;;6.20;;
79365;SDS011;68833;53.160;17.920;2024-03-23T23:11:05;11.40;;;6.20;;
79365;SDS011;68833;53.160;17.920;2024-03-23T23:13:32;11.50;;;5.80;;
79365;SDS011;68833;53.160;17.920;2024-03-23T23:15:59;15.60;;;7.30;;
79365;SDS011;68833;53.160;17.920;2024-03-23T23:18:29;11.20;;;6.80;;
79365;SDS011;68833;53.160;17.920;2024-03-23T23:21:00;11.90;;;6.50;;
79365;SDS011;68833;53.160;17.920;2024-03-23T23:23:33;9.30;;;6.10;;
79365;SDS011;68833;53.160;17.920;2024-03-23T23:26:00;11.50;;;5.70;;
79365;SDS011;68833;53.160;17.920;2024-03-23T23:28:27;12.20;;;6.10;;
79365;SDS011;68833;53.160;17.920;2024-03-23T23:30:57;14.60;;;7.20;;
79365;SDS011;68833;53.160;17.920;2024-03-23T23:33:26;12.40;;;7.00;;
79365;SDS011;68833;53.160;17.920;2024-03-23T23:35:53;9.90;;;6.20;;